< Typhoon 201526 2015 Season Typhoon 201601 >
Typhoon 201527 (MELOR)
General InformationTrack Information on Google MapsDetailed Wind InformationForecast History on Google MapsAccess Analytics MapList of All Images || NewsDisaster Info.WeblogTrackbackTyphoon FrontTwiphoonTyphoon Now!Typhoon ImaginationDisaster Info. XMLResourceGoogle EarthGE AnimationAtom FeedGeoJSON
Detalied Best Track (Time Zone = UTC)
Year Month Day Hour Lat. Long. Pressure (hPa) Wind (kt) Class Image Chart
2015 12 10 00 7.1 145.2 1008 0 2 Image Chart
2015 12 10 06 7.2 143.9 1006 0 2 Image Chart
2015 12 10 12 7.6 142.5 1006 0 2 Image Chart
2015 12 10 18 7.9 141.0 1004 0 2 Image Chart
2015 12 11 00 8.2 139.6 1004 0 2 Image Chart
2015 12 11 06 8.9 138.0 1002 35 3 Image Chart
2015 12 11 12 9.3 136.9 1002 35 3 Image Chart
2015 12 11 18 9.8 135.7 1000 40 3 Image Chart
2015 12 12 00 10.2 134.5 1000 40 3 Image Chart
2015 12 12 06 10.9 133.6 994 45 3 Image Chart
2015 12 12 12 11.2 132.2 985 55 4 Image Chart
2015 12 12 18 11.5 131.2 975 65 5 Image Chart
2015 12 13 00 11.9 130.3 970 70 5 Image Chart
2015 12 13 06 12.3 129.1 955 80 5 Image Chart
2015 12 13 12 12.4 128.1 950 85 5 Image Chart
2015 12 13 18 12.5 126.9 950 85 5 Image Chart
2015 12 14 00 12.5 125.8 935 95 5 Image Chart
2015 12 14 06 12.6 124.6 935 95 5 Image Chart
2015 12 14 12 12.8 123.5 955 80 5 Image Chart
2015 12 14 18 12.9 122.6 955 80 5 Image Chart
2015 12 15 00 13.0 121.8 950 85 5 Image Chart
2015 12 15 06 13.2 121.2 950 85 5 Image Chart
2015 12 15 12 13.4 120.6 955 80 5 Image Chart
2015 12 15 18 13.7 120.1 970 70 5 Image Chart
2015 12 16 00 14.1 120.1 975 65 5 Image Chart
2015 12 16 06 14.1 120.3 990 50 4 Image Chart
2015 12 16 12 13.7 120.3 996 45 3 Image Chart
2015 12 16 18 13.1 120.3 1000 35 3 Image Chart
2015 12 17 00 12.5 120.1 1008 0 2 Image Chart
Japan Meteorological Agency Best Track Data | Correction Date : 2016-01-20
< Typhoon 201526 2015 Season Typhoon 201601 >

Help